createdAt,value
2018-02-17T00:01:43.185Z,180.30
2018-02-17T00:04:11.312Z,207.70
2018-02-17T00:06:39.487Z,183.73
2018-02-17T00:09:07.623Z,196.60
2018-02-17T00:11:35.761Z,197.63
2018-02-17T00:14:03.911Z,201.13
2018-02-17T00:16:32.075Z,185.13
2018-02-17T00:19:00.980Z,189.23
2018-02-17T00:21:29.102Z,207.63
2018-02-17T00:23:57.513Z,219.80
2018-02-17T00:26:25.626Z,196.10
2018-02-17T00:28:53.787Z,195.43
2018-02-17T00:31:21.931Z,183.03
2018-02-17T00:33:50.101Z,227.30
2018-02-17T00:36:18.243Z,193.83
2018-02-17T00:38:46.363Z,223.30
2018-02-17T00:41:15.257Z,313.83
2018-02-17T00:43:44.229Z,222.10
2018-02-17T00:46:12.593Z,214.07
2018-02-17T00:48:44.298Z,240.90
2018-02-17T00:51:13.206Z,263.70
2018-02-17T00:53:45.400Z,238.13
2018-02-17T00:56:13.505Z,271.90
2018-02-17T00:58:41.664Z,300.87
2018-02-17T01:01:09.832Z,326.63
2018-02-17T01:03:39.699Z,283.23
2018-02-17T01:06:08.721Z,246.47
2018-02-17T01:08:36.865Z,279.13
2018-02-17T01:11:10.045Z,296.10
2018-02-17T01:13:40.861Z,277.70
2018-02-17T01:16:09.138Z,331.27
2018-02-17T01:18:37.265Z,362.47
2018-02-17T01:21:06.088Z,286.07
2018-02-17T01:23:34.925Z,224.53
2018-02-17T01:26:04.574Z,252.07
2018-02-17T01:28:33.426Z,199.07
2018-02-17T01:31:02.303Z,253.70
2018-02-17T01:33:30.785Z,217.90
2018-02-17T01:35:59.090Z,257.97
2018-02-17T01:38:27.382Z,226.63
2018-02-17T01:40:55.619Z,232.77
2018-02-17T01:43:23.873Z,212.30
2018-02-17T01:45:54.980Z,210.57
2018-02-17T01:48:23.152Z,180.03
2018-02-17T01:50:51.333Z,183.50
2018-02-17T01:53:19.480Z,170.70
2018-02-17T01:55:49.187Z,205.97
2018-02-17T01:58:22.279Z,225.90
2018-02-17T02:00:51.219Z,185.60
2018-02-17T02:03:19.465Z,237.67
2018-02-17T02:05:47.570Z,178.97
2018-02-17T02:08:15.729Z,175.13
2018-02-17T02:10:43.871Z,189.63
2018-02-17T02:13:12.812Z,219.03
2018-02-17T02:15:41.844Z,221.70
2018-02-17T02:18:14.815Z,216.40
2018-02-17T02:20:42.953Z,195.10
2018-02-17T02:23:11.079Z,185.57
2018-02-17T02:25:40.032Z,269.70
2018-02-17T02:28:08.374Z,182.23
2018-02-17T02:30:36.882Z,163.17
2018-02-17T02:33:13.324Z,162.50
2018-02-17T02:35:41.452Z,199.17
2018-02-17T02:38:09.598Z,134.50
2018-02-17T02:40:37.738Z,160.07
2018-02-17T02:43:07.362Z,164.73
2018-02-17T02:45:49.396Z,166.00
2018-02-17T02:48:24.206Z,155.63
2018-02-17T02:50:52.340Z,152.20
2018-02-17T02:53:21.403Z,188.37
2018-02-17T02:55:49.538Z,166.33
2018-02-17T02:58:17.989Z,155.83
2018-02-17T03:00:46.108Z,179.43
2018-02-17T03:03:14.228Z,186.53
2018-02-17T03:05:42.375Z,157.83
2018-02-17T03:08:10.550Z,173.60
2018-02-17T03:10:38.765Z,127.33
2018-02-17T03:13:06.876Z,150.03
2018-02-17T03:15:35.102Z,136.80
2018-02-17T03:18:03.992Z,139.23
2018-02-17T03:20:36.005Z,122.87
2018-02-17T03:23:04.131Z,174.57
2018-02-17T03:25:32.861Z,166.97
2018-02-17T03:28:01.070Z,145.87
2018-02-17T03:30:29.254Z,138.00
2018-02-17T03:32:58.267Z,169.37
2018-02-17T03:35:26.375Z,140.30
2018-02-17T03:37:54.480Z,105.23
2018-02-17T03:40:23.371Z,114.80
2018-02-17T03:42:51.643Z,119.30
2018-02-17T03:45:19.750Z,85.00
2018-02-17T03:47:47.858Z,117.97
2018-02-17T03:50:16.012Z,124.30
2018-02-17T03:52:44.199Z,128.87
2018-02-17T03:55:12.326Z,132.87
2018-02-17T03:57:41.307Z,108.23
2018-02-17T04:00:10.248Z,101.17
2018-02-17T04:02:38.788Z,99.97
2018-02-17T04:05:11.837Z,136.93
2018-02-17T04:07:41.716Z,97.13
2018-02-17T04:10:10.751Z,111.73
2018-02-17T04:12:46.919Z,93.20
2018-02-17T04:15:23.406Z,104.67
2018-02-17T04:17:53.066Z,75.90
2018-02-17T04:20:21.254Z,76.70
2018-02-17T04:22:49.389Z,80.10
2018-02-17T04:25:31.745Z,77.77
2018-02-17T04:28:03.458Z,70.10
2018-02-17T04:30:32.292Z,72.70
2018-02-17T04:33:01.102Z,83.70
2018-02-17T04:35:31.737Z,100.23
2018-02-17T04:37:59.857Z,118.73
2018-02-17T04:40:29.880Z,110.47
2018-02-17T04:43:01.782Z,109.63
2018-02-17T04:45:30.704Z,90.87
2018-02-17T04:48:29.872Z,73.70
2018-02-17T04:51:04.941Z,63.60
2018-02-17T04:53:40.437Z,57.00
2018-02-17T04:59:39.434Z,55.87
2018-02-17T05:02:08.592Z,59.40
2018-02-17T05:04:41.592Z,78.60
2018-02-17T05:07:13.771Z,60.90
2018-02-17T05:09:41.886Z,54.37
2018-02-17T05:12:10.024Z,59.00
2018-02-17T05:14:44.293Z,60.37
2018-02-17T05:20:37.178Z,50.63
2018-02-17T05:23:09.376Z,55.73
2018-02-17T05:25:38.005Z,72.50
2018-02-17T05:28:07.805Z,63.97
2018-02-17T05:30:51.617Z,68.13
2018-02-17T05:33:36.116Z,73.17
2018-02-17T05:36:14.205Z,85.93
2018-02-17T05:38:42.375Z,62.77
2018-02-17T05:41:19.753Z,79.80
2018-02-17T05:43:47.872Z,84.67
2018-02-17T05:46:19.340Z,93.30
2018-02-17T05:48:50.514Z,91.97
2018-02-17T05:51:18.631Z,85.57
2018-02-17T05:53:46.769Z,94.00
2018-02-17T05:56:15.605Z,96.60
2018-02-17T05:58:48.272Z,104.37
2018-02-17T06:01:16.382Z,91.07
2018-02-17T06:03:44.472Z,93.37
2018-02-17T06:06:12.643Z,74.97
2018-02-17T06:08:40.760Z,76.60
2018-02-17T06:11:08.881Z,85.83
2018-02-17T06:13:37.008Z,83.60
2018-02-17T06:16:05.168Z,85.97
2018-02-17T06:18:33.264Z,84.93
2018-02-17T06:21:01.398Z,59.77
2018-02-17T06:23:29.515Z,54.47
2018-02-17T06:25:57.672Z,54.67
2018-02-17T06:28:25.925Z,55.50
2018-02-17T06:30:54.065Z,52.47
2018-02-17T06:33:22.169Z,52.93
2018-02-17T06:35:50.292Z,50.00
2018-02-17T06:38:18.413Z,46.77
2018-02-17T06:40:46.512Z,52.30
2018-02-17T06:43:14.620Z,56.30
2018-02-17T06:45:42.733Z,52.77
2018-02-17T06:48:10.894Z,65.20
2018-02-17T06:50:39.560Z,58.17
2018-02-17T06:53:08.548Z,83.07
2018-02-17T06:55:36.632Z,93.77
2018-02-17T06:58:04.790Z,78.07
2018-02-17T07:00:32.976Z,86.37
2018-02-17T07:03:01.066Z,84.30
2018-02-17T07:05:29.198Z,79.47
2018-02-17T07:07:57.349Z,70.50
2018-02-17T07:10:25.494Z,81.87
2018-02-17T07:12:53.651Z,70.43
2018-02-17T07:15:21.761Z,64.37
2018-02-17T07:17:50.069Z,75.80
2018-02-17T07:20:23.773Z,74.00
2018-02-17T07:22:51.865Z,66.57
2018-02-17T07:25:20.738Z,62.50
2018-02-17T07:27:49.745Z,65.57
2018-02-17T07:30:17.897Z,50.37
2018-02-17T07:32:46.047Z,50.30
2018-02-17T07:35:14.219Z,48.20
2018-02-17T07:37:42.361Z,49.77
2018-02-17T07:40:10.494Z,48.20
2018-02-17T07:42:38.613Z,49.93
2018-02-17T07:45:06.718Z,59.43
2018-02-17T07:47:34.839Z,59.50
2018-02-17T07:50:02.938Z,65.83
2018-02-17T07:52:31.061Z,73.03
2018-02-17T07:54:59.158Z,72.27
2018-02-17T07:57:27.297Z,72.80
2018-02-17T07:59:55.414Z,65.73
2018-02-17T08:02:23.604Z,57.70
2018-02-17T08:04:51.719Z,75.77
2018-02-17T08:07:19.825Z,58.87
2018-02-17T08:09:47.962Z,66.33
2018-02-17T08:12:16.830Z,66.20
2018-02-17T08:14:45.562Z,68.63
2018-02-17T08:17:13.786Z,52.83
2018-02-17T08:19:41.908Z,57.73
2018-02-17T08:22:10.113Z,49.33
2018-02-17T08:24:38.372Z,55.33
2018-02-17T08:27:07.261Z,47.43
2018-02-17T08:29:35.385Z,52.53
2018-02-17T08:32:03.486Z,62.23
2018-02-17T08:34:31.592Z,50.60
2018-02-17T08:36:59.720Z,53.53
2018-02-17T08:39:27.878Z,57.43
2018-02-17T08:41:56.006Z,53.03
2018-02-17T08:44:24.135Z,45.67
2018-02-17T08:46:52.259Z,59.53
2018-02-17T08:49:20.395Z,47.47
2018-02-17T08:51:48.507Z,52.20
2018-02-17T08:54:17.130Z,43.80
2018-02-17T08:56:45.279Z,49.33
2018-02-17T08:59:13.475Z,34.73
2018-02-17T09:01:41.569Z,49.40
2018-02-17T09:04:09.697Z,39.00
2018-02-17T09:06:37.893Z,56.50
2018-02-17T09:09:05.987Z,53.50
2018-02-17T09:11:34.437Z,56.13
2018-02-17T09:14:02.537Z,51.47
2018-02-17T09:16:30.693Z,46.33
2018-02-17T09:18:58.820Z,51.13
2018-02-17T09:21:27.078Z,57.77
2018-02-17T09:23:55.984Z,49.37
2018-02-17T09:26:24.088Z,42.67
2018-02-17T09:28:52.236Z,59.03
2018-02-17T09:31:20.346Z,40.67
2018-02-17T09:33:48.794Z,47.53
2018-02-17T09:36:16.964Z,43.07
2018-02-17T09:38:45.133Z,44.10
2018-02-17T09:41:13.409Z,40.73
2018-02-17T09:43:41.571Z,45.27
2018-02-17T09:46:09.723Z,42.33
2018-02-17T09:48:38.071Z,42.23
2018-02-17T09:51:06.979Z,42.10
2018-02-17T09:53:35.142Z,48.37
2018-02-17T09:56:03.281Z,41.83
2018-02-17T09:58:36.011Z,46.87
2018-02-17T10:01:04.117Z,36.10
2018-02-17T10:03:32.240Z,30.10
2018-02-17T10:06:00.584Z,28.53
2018-02-17T10:08:28.802Z,26.57
2018-02-17T10:10:57.153Z,29.43
2018-02-17T10:13:25.280Z,28.23
2018-02-17T10:15:53.460Z,32.37
2018-02-17T10:18:21.642Z,26.97
2018-02-17T10:20:50.213Z,33.30
2018-02-17T10:23:19.129Z,26.57
2018-02-17T10:25:47.227Z,39.47
2018-02-17T10:28:15.335Z,37.37
2018-02-17T10:30:43.444Z,30.27
2018-02-17T10:33:11.895Z,25.60
2018-02-17T10:35:40.044Z,21.70
2018-02-17T10:38:08.771Z,35.70
2018-02-17T10:40:36.940Z,33.10
2018-02-17T10:43:05.147Z,22.57
2018-02-17T10:45:33.283Z,27.23
2018-02-17T10:48:01.512Z,24.67
2018-02-17T10:50:29.616Z,19.87
2018-02-17T10:52:57.736Z,18.33
2018-02-17T10:55:31.446Z,19.80
2018-02-17T10:57:59.528Z,16.80
2018-02-17T11:00:27.624Z,17.57
2018-02-17T11:02:55.748Z,17.27
2018-02-17T11:05:23.866Z,19.20
2018-02-17T11:07:51.968Z,18.77
2018-02-17T11:10:20.068Z,21.23
2018-02-17T11:12:48.202Z,27.43
2018-02-17T11:15:16.287Z,22.10
2018-02-17T11:17:44.392Z,23.50
2018-02-17T11:20:12.630Z,18.27
2018-02-17T11:22:40.740Z,24.37
2018-02-17T11:25:08.943Z,25.60
2018-02-17T11:27:37.080Z,22.57
2018-02-17T11:30:05.218Z,26.27
2018-02-17T11:32:33.309Z,30.10
2018-02-17T11:35:01.445Z,40.40
2018-02-17T11:37:29.548Z,32.40
2018-02-17T11:39:57.764Z,41.70
2018-02-17T11:42:25.992Z,32.03
2018-02-17T11:44:54.149Z,31.80
2018-02-17T11:47:22.273Z,34.10
2018-02-17T11:49:50.367Z,31.47
2018-02-17T11:52:18.471Z,45.63
2018-02-17T11:54:47.369Z,43.27
2018-02-17T11:57:15.483Z,47.40
2018-02-17T11:59:43.765Z,39.17
2018-02-17T12:02:11.883Z,31.80
2018-02-17T12:04:40.009Z,42.97
2018-02-17T12:07:08.213Z,40.63
2018-02-17T12:09:36.323Z,39.63
2018-02-17T12:12:05.088Z,46.97
2018-02-17T12:14:33.952Z,50.40
2018-02-17T12:17:02.118Z,45.97
2018-02-17T12:19:30.238Z,44.63
2018-02-17T12:21:58.416Z,36.30
2018-02-17T12:24:26.524Z,43.80
2018-02-17T12:26:54.642Z,40.77
2018-02-17T12:29:23.051Z,50.67
2018-02-17T12:31:51.219Z,40.50
2018-02-17T12:34:19.380Z,45.27
2018-02-17T12:36:47.475Z,45.83
2018-02-17T12:39:15.628Z,49.43
2018-02-17T12:41:43.723Z,65.67
2018-02-17T12:44:11.879Z,58.73
2018-02-17T12:46:39.991Z,53.57
2018-02-17T12:49:08.129Z,59.67
2018-02-17T12:51:36.233Z,57.57
2018-02-17T12:54:04.393Z,56.07
2018-02-17T12:56:32.797Z,75.93
2018-02-17T12:59:00.977Z,78.03
2018-02-17T13:01:29.166Z,77.33
2018-02-17T13:03:57.274Z,89.67
2018-02-17T13:06:25.390Z,95.57
2018-02-17T13:08:53.634Z,93.43
2018-02-17T13:11:21.769Z,101.03
2018-02-17T13:13:49.880Z,93.90
2018-02-17T13:16:18.018Z,120.80
2018-02-17T13:18:46.156Z,112.23
2018-02-17T13:21:14.294Z,108.13
2018-02-17T13:23:42.423Z,98.47
2018-02-17T13:26:10.817Z,116.37
2018-02-17T13:28:39.000Z,100.60
2018-02-17T13:31:07.112Z,91.70
2018-02-17T13:33:35.245Z,109.67
2018-02-17T13:36:03.375Z,88.27
2018-02-17T13:38:31.695Z,101.13
2018-02-17T13:40:59.898Z,89.40
2018-02-17T13:43:28.106Z,93.77
2018-02-17T13:45:56.323Z,78.13
2018-02-17T13:48:24.450Z,66.73
2018-02-17T13:50:52.594Z,59.43
2018-02-17T13:53:20.951Z,53.73
2018-02-17T13:55:49.067Z,59.60
2018-02-17T13:58:17.158Z,58.17
2018-02-17T14:00:45.269Z,57.53
2018-02-17T14:03:13.376Z,57.17
2018-02-17T14:05:41.568Z,63.40
2018-02-17T14:08:09.680Z,47.17
2018-02-17T14:10:37.924Z,49.33
2018-02-17T14:13:06.270Z,49.13
2018-02-17T14:15:34.625Z,42.43
2018-02-17T14:18:02.749Z,43.37
2018-02-17T14:20:30.864Z,51.17
2018-02-17T14:22:59.080Z,60.00
2018-02-17T14:25:27.338Z,70.37
2018-02-17T14:27:55.465Z,58.33
2018-02-17T14:30:23.615Z,50.37
2018-02-17T14:32:52.253Z,52.27
2018-02-17T14:35:21.176Z,48.60
2018-02-17T14:37:49.283Z,58.23
2018-02-17T14:40:18.193Z,65.57
2018-02-17T14:42:46.318Z,63.90
2018-02-17T14:45:14.444Z,67.93
2018-02-17T14:47:42.547Z,63.67
2018-02-17T14:50:11.142Z,67.00
2018-02-17T14:52:39.544Z,70.40
2018-02-17T14:55:07.685Z,65.83
2018-02-17T14:57:35.793Z,70.30
2018-02-17T15:00:03.906Z,70.87
2018-02-17T15:02:32.109Z,65.10
2018-02-17T15:05:00.291Z,70.13
2018-02-17T15:07:28.688Z,85.80
2018-02-17T15:09:56.986Z,74.83
2018-02-17T15:12:25.142Z,86.53
2018-02-17T15:14:53.271Z,92.97
2018-02-17T15:17:21.805Z,82.87
2018-02-17T15:19:51.477Z,80.20
2018-02-17T15:22:19.573Z,90.43
2018-02-17T15:24:48.418Z,93.80
2018-02-17T15:27:16.824Z,95.93
2018-02-17T15:29:44.952Z,95.83
2018-02-17T15:32:13.688Z,88.80
2018-02-17T15:34:41.845Z,98.03
2018-02-17T15:37:10.168Z,100.00
2018-02-17T15:39:38.344Z,111.10
2018-02-17T15:42:06.929Z,97.27
2018-02-17T15:44:35.817Z,109.90
2018-02-17T15:47:04.694Z,116.77
2018-02-17T15:49:32.788Z,107.67
2018-02-17T15:52:00.960Z,116.13
2018-02-17T15:54:29.064Z,120.30
2018-02-17T15:56:58.414Z,115.83
2018-02-17T15:59:26.618Z,104.00
2018-02-17T16:01:54.839Z,97.43
2018-02-17T16:04:23.035Z,78.77
2018-02-17T16:06:51.136Z,96.00
2018-02-17T16:09:19.283Z,98.37
2018-02-17T16:11:47.405Z,77.43
2018-02-17T16:14:15.576Z,77.13
2018-02-17T16:16:43.679Z,65.70
2018-02-17T16:19:11.831Z,69.13
2018-02-17T16:21:39.926Z,71.23
2018-02-17T16:24:08.114Z,68.70
2018-02-17T16:26:36.379Z,63.60
2018-02-17T16:29:04.563Z,80.23
2018-02-17T16:31:32.822Z,68.73
2018-02-17T16:34:01.033Z,67.73
2018-02-17T16:36:29.318Z,73.20
2018-02-17T16:38:57.576Z,71.07
2018-02-17T16:41:25.754Z,74.87
2018-02-17T16:43:54.044Z,74.70
2018-02-17T16:46:22.285Z,69.60
2018-02-17T16:48:50.435Z,66.60
2018-02-17T16:51:18.625Z,80.10
2018-02-17T16:53:46.741Z,64.40
2018-02-17T16:56:14.858Z,70.50
2018-02-17T16:58:43.042Z,74.63
2018-02-17T17:01:27.110Z,68.03
2018-02-17T17:10:14.322Z,42.80
2018-02-17T17:12:59.753Z,53.03
2018-02-17T17:18:59.239Z,48.93
2018-02-17T17:21:53.273Z,42.00
2018-02-17T17:24:55.588Z,46.50
2018-02-17T17:27:58.909Z,39.40
2018-02-17T17:33:05.454Z,29.60
2018-02-17T17:35:48.706Z,30.53
2018-02-17T17:38:22.460Z,35.50
2018-02-17T17:43:48.812Z,34.17
2018-02-17T17:46:32.049Z,38.90
2018-02-17T17:49:01.797Z,35.73
2018-02-17T17:54:15.120Z,38.87
2018-02-17T17:56:51.263Z,40.93
2018-02-17T17:59:40.982Z,37.27
2018-02-17T18:15:51.805Z,48.23
2018-02-17T18:18:21.647Z,39.13
2018-02-17T18:20:54.301Z,40.30
2018-02-17T18:26:43.112Z,33.30
2018-02-17T18:29:58.189Z,44.33
2018-02-17T18:35:46.921Z,45.67
2018-02-17T18:38:15.099Z,37.83
2018-02-17T18:40:44.345Z,50.03
2018-02-17T18:43:12.473Z,38.30
2018-02-17T18:45:41.648Z,43.77
2018-02-17T18:48:09.809Z,42.50
2018-02-17T18:50:37.958Z,42.57
2018-02-17T18:53:06.480Z,38.83
2018-02-17T18:55:34.673Z,40.17
2018-02-17T18:58:03.718Z,36.47
2018-02-17T19:00:32.727Z,36.40
2018-02-17T19:03:01.358Z,38.80
2018-02-17T19:05:31.167Z,43.37
2018-02-17T19:07:59.338Z,40.67
2018-02-17T19:10:28.353Z,42.10
2018-02-17T19:12:56.554Z,46.43
2018-02-17T19:15:25.880Z,46.50
2018-02-17T19:17:54.082Z,52.70
2018-02-17T19:20:22.972Z,42.17
2018-02-17T19:22:51.976Z,46.57
2018-02-17T19:25:20.883Z,45.43
2018-02-17T19:27:49.085Z,46.23
2018-02-17T19:30:17.990Z,47.00
2018-02-17T19:32:46.975Z,48.43
2018-02-17T19:35:16.011Z,52.00
2018-02-17T19:37:44.994Z,49.93
2018-02-17T19:40:13.328Z,54.63
2018-02-17T19:42:41.531Z,59.93
2018-02-17T19:45:09.819Z,55.77
2018-02-17T19:47:39.173Z,46.93
2018-02-17T19:50:08.213Z,51.57
2018-02-17T19:52:36.434Z,52.20
2018-02-17T19:55:04.595Z,48.07
2018-02-17T19:57:33.625Z,55.70
2018-02-17T20:00:01.834Z,43.73
2018-02-17T20:02:30.014Z,49.83
2018-02-17T20:04:58.222Z,46.80
2018-02-17T20:07:27.164Z,43.27
2018-02-17T20:09:55.305Z,43.00
2018-02-17T20:12:23.561Z,52.37
2018-02-17T20:14:51.807Z,41.47
2018-02-17T20:17:21.063Z,45.10
2018-02-17T20:19:49.992Z,44.40
2018-02-17T20:22:18.159Z,40.37
2018-02-17T20:24:46.317Z,41.27
2018-02-17T20:27:15.724Z,37.27
2018-02-17T20:29:43.900Z,40.40
2018-02-17T20:32:12.018Z,39.03
2018-02-17T20:34:41.201Z,38.30
2018-02-17T20:37:09.389Z,36.97
2018-02-17T20:39:38.317Z,33.87
2018-02-17T20:42:06.442Z,36.93
2018-02-17T20:44:35.422Z,38.37
2018-02-17T20:47:04.351Z,37.30
2018-02-17T20:49:32.476Z,31.40
2018-02-17T20:52:00.652Z,32.37
2018-02-17T20:54:28.800Z,36.40
2018-02-17T20:56:56.978Z,31.03
2018-02-17T20:59:25.144Z,37.00
2018-02-17T21:01:53.301Z,40.93
2018-02-17T21:04:21.443Z,31.63
2018-02-17T21:06:49.726Z,33.87
2018-02-17T21:09:18.635Z,37.27
2018-02-17T21:11:47.880Z,36.87
2018-02-17T21:14:16.073Z,35.60
2018-02-17T21:16:44.942Z,44.33
2018-02-17T21:19:13.999Z,36.07
2018-02-17T21:21:42.875Z,32.07
2018-02-17T21:24:11.802Z,30.30
2018-02-17T21:26:39.947Z,33.80
2018-02-17T21:29:08.871Z,29.17
2018-02-17T21:31:37.012Z,34.20
2018-02-17T21:34:05.958Z,31.07
2018-02-17T21:36:35.370Z,28.80
2018-02-17T21:39:03.515Z,29.77
2018-02-17T21:41:31.695Z,29.43
2018-02-17T21:43:59.850Z,33.40
2018-02-17T21:46:28.030Z,35.57
2018-02-17T21:48:56.172Z,31.20
2018-02-17T21:51:25.092Z,30.53
2018-02-17T21:53:53.296Z,31.87
2018-02-17T21:56:21.473Z,31.23
2018-02-17T21:58:49.666Z,29.60
2018-02-17T22:01:18.852Z,30.17
2018-02-17T22:03:47.034Z,29.53
2018-02-17T22:06:15.182Z,31.17
2018-02-17T22:08:43.352Z,30.37
2018-02-17T22:11:11.503Z,33.87
2018-02-17T22:13:39.678Z,35.70
2018-02-17T22:16:07.818Z,28.23
2018-02-17T22:18:36.000Z,30.57
2018-02-17T22:21:04.978Z,29.57
2018-02-17T22:23:33.153Z,31.00
2018-02-17T22:26:02.607Z,31.90
2018-02-17T22:28:30.843Z,32.13
2018-02-17T22:30:59.897Z,32.77
2018-02-17T22:33:28.050Z,30.07
2018-02-17T22:35:57.606Z,32.17
2018-02-17T22:38:30.150Z,32.83
2018-02-17T22:40:58.318Z,30.87
2018-02-17T22:43:27.248Z,31.77
2018-02-17T22:45:55.379Z,33.33
2018-02-17T22:48:23.540Z,34.13
2018-02-17T22:50:51.709Z,35.37
2018-02-17T22:53:19.893Z,28.73
2018-02-17T22:55:48.062Z,30.87
2018-02-17T22:58:16.187Z,32.27
2018-02-17T23:00:44.362Z,31.07
2018-02-17T23:03:12.618Z,29.17
2018-02-17T23:05:40.833Z,31.97
2018-02-17T23:08:08.971Z,31.27
2018-02-17T23:10:37.109Z,32.67
2018-02-17T23:13:05.271Z,29.70
2018-02-17T23:15:33.411Z,31.73
2018-02-17T23:18:01.549Z,30.70
2018-02-17T23:20:29.793Z,33.77
2018-02-17T23:22:59.647Z,28.80
2018-02-17T23:25:27.818Z,30.60
2018-02-17T23:27:55.963Z,30.77
2018-02-17T23:30:24.836Z,28.07
2018-02-17T23:32:52.989Z,26.77
2018-02-17T23:35:21.183Z,31.97
2018-02-17T23:37:49.330Z,32.27
2018-02-17T23:40:17.560Z,35.43
2018-02-17T23:42:45.796Z,33.37
2018-02-17T23:45:14.004Z,32.43
2018-02-17T23:47:42.947Z,29.93
2018-02-17T23:50:11.070Z,33.30
2018-02-17T23:52:39.964Z,29.90
2018-02-17T23:55:08.231Z,31.40
2018-02-17T23:57:37.147Z,31.83
